sensor_id;sensor_type;location;lat;lon;timestamp;temperature;humidity
15997;DHT22;8103;51.340;12.326;2023-02-28T00:01:26;2.00;92.60
15997;DHT22;8103;51.340;12.326;2023-02-28T00:03:54;2.00;92.50
15997;DHT22;8103;51.340;12.326;2023-02-28T00:06:22;2.00;92.60
15997;DHT22;8103;51.340;12.326;2023-02-28T00:08:53;2.00;92.60
15997;DHT22;8103;51.340;12.326;2023-02-28T00:11:20;2.00;92.60
15997;DHT22;8103;51.340;12.326;2023-02-28T00:13:47;2.00;92.70
15997;DHT22;8103;51.340;12.326;2023-02-28T00:16:24;2.00;92.70
15997;DHT22;8103;51.340;12.326;2023-02-28T00:18:51;2.00;92.70
15997;DHT22;8103;51.340;12.326;2023-02-28T00:21:18;2.00;92.80
15997;DHT22;8103;51.340;12.326;2023-02-28T00:23:46;2.00;92.80
15997;DHT22;8103;51.340;12.326;2023-02-28T00:26:14;2.00;92.80
15997;DHT22;8103;51.340;12.326;2023-02-28T00:28:45;2.00;92.80
15997;DHT22;8103;51.340;12.326;2023-02-28T00:31:12;1.90;92.80
15997;DHT22;8103;51.340;12.326;2023-02-28T00:33:39;2.00;92.90
15997;DHT22;8103;51.340;12.326;2023-02-28T00:36:07;1.90;92.90
15997;DHT22;8103;51.340;12.326;2023-02-28T00:38:37;1.90;93.00
15997;DHT22;8103;51.340;12.326;2023-02-28T00:41:07;1.90;93.10
15997;DHT22;8103;51.340;12.326;2023-02-28T00:43:37;1.90;93.20
15997;DHT22;8103;51.340;12.326;2023-02-28T00:46:06;1.90;93.20
15997;DHT22;8103;51.340;12.326;2023-02-28T00:48:33;1.80;93.30
15997;DHT22;8103;51.340;12.326;2023-02-28T00:51:00;1.90;93.40
15997;DHT22;8103;51.340;12.326;2023-02-28T00:53:28;1.80;93.50
15997;DHT22;8103;51.340;12.326;2023-02-28T00:55:56;1.80;93.60
15997;DHT22;8103;51.340;12.326;2023-02-28T00:58:23;1.80;93.60
15997;DHT22;8103;51.340;12.326;2023-02-28T01:00:51;1.80;93.70
15997;DHT22;8103;51.340;12.326;2023-02-28T01:03:20;1.80;93.70
15997;DHT22;8103;51.340;12.326;2023-02-28T01:05:48;1.80;93.80
15997;DHT22;8103;51.340;12.326;2023-02-28T01:08:15;1.80;93.80
15997;DHT22;8103;51.340;12.326;2023-02-28T01:10:42;1.80;93.80
15997;DHT22;8103;51.340;12.326;2023-02-28T01:13:10;1.80;93.90
15997;DHT22;8103;51.340;12.326;2023-02-28T01:15:49;1.80;94.00
15997;DHT22;8103;51.340;12.326;2023-02-28T01:18:20;1.80;94.00
15997;DHT22;8103;51.340;12.326;2023-02-28T01:20:48;1.80;94.10
15997;DHT22;8103;51.340;12.326;2023-02-28T01:23:16;1.80;94.20
15997;DHT22;8103;51.340;12.326;2023-02-28T01:25:43;1.80;94.20
15997;DHT22;8103;51.340;12.326;2023-02-28T01:28:10;1.80;94.20
15997;DHT22;8103;51.340;12.326;2023-02-28T01:30:37;1.80;94.20
15997;DHT22;8103;51.340;12.326;2023-02-28T01:33:03;1.80;94.20
15997;DHT22;8103;51.340;12.326;2023-02-28T01:35:35;1.80;94.20
15997;DHT22;8103;51.340;12.326;2023-02-28T01:38:03;1.80;94.30
15997;DHT22;8103;51.340;12.326;2023-02-28T01:40:46;1.80;94.30
15997;DHT22;8103;51.340;12.326;2023-02-28T01:43:21;1.80;94.40
15997;DHT22;8103;51.340;12.326;2023-02-28T01:45:50;1.80;94.50
15997;DHT22;8103;51.340;12.326;2023-02-28T01:48:23;1.80;94.50
15997;DHT22;8103;51.340;12.326;2023-02-28T01:50:55;1.80;94.60
15997;DHT22;8103;51.340;12.326;2023-02-28T01:53:33;1.80;94.60
15997;DHT22;8103;51.340;12.326;2023-02-28T01:56:06;1.80;94.70
15997;DHT22;8103;51.340;12.326;2023-02-28T01:58:35;1.80;94.70
15997;DHT22;8103;51.340;12.326;2023-02-28T02:01:03;1.80;94.70
15997;DHT22;8103;51.340;12.326;2023-02-28T02:03:31;1.80;94.70
15997;DHT22;8103;51.340;12.326;2023-02-28T02:05:58;1.80;94.70
15997;DHT22;8103;51.340;12.326;2023-02-28T02:08:26;1.80;94.80
15997;DHT22;8103;51.340;12.326;2023-02-28T02:10:58;1.80;94.80
15997;DHT22;8103;51.340;12.326;2023-02-28T02:13:34;1.80;94.80
15997;DHT22;8103;51.340;12.326;2023-02-28T02:16:35;1.80;94.90
15997;DHT22;8103;51.340;12.326;2023-02-28T02:19:26;1.80;95.00
15997;DHT22;8103;51.340;12.326;2023-02-28T02:25:42;1.70;95.10
15997;DHT22;8103;51.340;12.326;2023-02-28T02:28:39;1.60;95.10
15997;DHT22;8103;51.340;12.326;2023-02-28T02:32:09;1.60;95.20
15997;DHT22;8103;51.340;12.326;2023-02-28T02:38:49;1.60;95.30
15997;DHT22;8103;51.340;12.326;2023-02-28T02:41:27;1.60;95.40
15997;DHT22;8103;51.340;12.326;2023-02-28T02:44:10;1.50;95.50
15997;DHT22;8103;51.340;12.326;2023-02-28T02:46:44;1.60;95.60
15997;DHT22;8103;51.340;12.326;2023-02-28T02:49:26;1.50;95.70
15997;DHT22;8103;51.340;12.326;2023-02-28T02:52:02;1.50;95.70
15997;DHT22;8103;51.340;12.326;2023-02-28T02:54:35;1.50;95.80
15997;DHT22;8103;51.340;12.326;2023-02-28T02:57:11;1.50;95.80
15997;DHT22;8103;51.340;12.326;2023-02-28T02:59:42;1.50;95.80
15997;DHT22;8103;51.340;12.326;2023-02-28T03:02:12;1.50;95.80
15997;DHT22;8103;51.340;12.326;2023-02-28T03:04:52;1.40;95.80
15997;DHT22;8103;51.340;12.326;2023-02-28T03:07:27;1.30;95.90
15997;DHT22;8103;51.340;12.326;2023-02-28T03:09:55;1.20;96.00
15997;DHT22;8103;51.340;12.326;2023-02-28T03:12:40;1.20;96.20
15997;DHT22;8103;51.340;12.326;2023-02-28T03:15:27;1.10;96.40
15997;DHT22;8103;51.340;12.326;2023-02-28T03:18:14;1.10;96.50
15997;DHT22;8103;51.340;12.326;2023-02-28T03:21:33;1.10;96.70
15997;DHT22;8103;51.340;12.326;2023-02-28T03:24:11;1.10;96.80
15997;DHT22;8103;51.340;12.326;2023-02-28T03:26:52;1.00;96.90
15997;DHT22;8103;51.340;12.326;2023-02-28T03:30:06;1.00;96.90
15997;DHT22;8103;51.340;12.326;2023-02-28T03:33:06;1.00;97.00
15997;DHT22;8103;51.340;12.326;2023-02-28T03:35:42;1.00;97.20
15997;DHT22;8103;51.340;12.326;2023-02-28T03:38:20;1.00;97.20
15997;DHT22;8103;51.340;12.326;2023-02-28T03:41:21;1.10;97.30
15997;DHT22;8103;51.340;12.326;2023-02-28T03:44:07;1.10;97.30
15997;DHT22;8103;51.340;12.326;2023-02-28T03:46:48;1.10;97.30
15997;DHT22;8103;51.340;12.326;2023-02-28T03:49:27;1.00;97.30
15997;DHT22;8103;51.340;12.326;2023-02-28T03:52:02;1.00;97.40
15997;DHT22;8103;51.340;12.326;2023-02-28T03:54:37;1.00;97.40
15997;DHT22;8103;51.340;12.326;2023-02-28T03:57:36;0.90;97.40
15997;DHT22;8103;51.340;12.326;2023-02-28T04:00:40;0.90;97.50
15997;DHT22;8103;51.340;12.326;2023-02-28T04:03:38;0.90;97.60
15997;DHT22;8103;51.340;12.326;2023-02-28T04:06:15;0.90;97.70
15997;DHT22;8103;51.340;12.326;2023-02-28T04:08:47;0.90;97.70
15997;DHT22;8103;51.340;12.326;2023-02-28T04:13:47;0.90;97.80
15997;DHT22;8103;51.340;12.326;2023-02-28T04:16:14;0.90;98.00
15997;DHT22;8103;51.340;12.326;2023-02-28T04:18:59;0.90;98.00
15997;DHT22;8103;51.340;12.326;2023-02-28T04:21:30;0.90;98.10
15997;DHT22;8103;51.340;12.326;2023-02-28T04:23:59;0.90;98.20
15997;DHT22;8103;51.340;12.326;2023-02-28T04:26:34;0.90;98.20
15997;DHT22;8103;51.340;12.326;2023-02-28T04:33:09;1.00;98.10
15997;DHT22;8103;51.340;12.326;2023-02-28T04:35:36;1.00;98.00
15997;DHT22;8103;51.340;12.326;2023-02-28T04:38:03;1.10;98.00
15997;DHT22;8103;51.340;12.326;2023-02-28T04:40:29;1.10;97.90
15997;DHT22;8103;51.340;12.326;2023-02-28T04:42:56;1.10;97.80
15997;DHT22;8103;51.340;12.326;2023-02-28T04:45:23;1.10;97.80
15997;DHT22;8103;51.340;12.326;2023-02-28T04:47:50;1.10;97.80
15997;DHT22;8103;51.340;12.326;2023-02-28T04:50:17;1.10;97.70
15997;DHT22;8103;51.340;12.326;2023-02-28T04:52:44;1.10;97.60
15997;DHT22;8103;51.340;12.326;2023-02-28T04:55:11;1.10;97.60
15997;DHT22;8103;51.340;12.326;2023-02-28T04:57:37;1.10;97.50
15997;DHT22;8103;51.340;12.326;2023-02-28T05:00:04;1.10;97.60
15997;DHT22;8103;51.340;12.326;2023-02-28T05:02:34;1.00;97.50
15997;DHT22;8103;51.340;12.326;2023-02-28T05:05:02;1.00;97.50
15997;DHT22;8103;51.340;12.326;2023-02-28T05:07:28;0.90;97.50
15997;DHT22;8103;51.340;12.326;2023-02-28T05:09:55;0.80;97.60
15997;DHT22;8103;51.340;12.326;2023-02-28T05:12:22;0.80;97.70
15997;DHT22;8103;51.340;12.326;2023-02-28T05:14:49;0.80;97.80
15997;DHT22;8103;51.340;12.326;2023-02-28T05:17:16;0.80;97.70
15997;DHT22;8103;51.340;12.326;2023-02-28T05:19:43;0.90;97.70
15997;DHT22;8103;51.340;12.326;2023-02-28T05:22:14;0.90;97.70
15997;DHT22;8103;51.340;12.326;2023-02-28T05:24:43;0.90;97.60
15997;DHT22;8103;51.340;12.326;2023-02-28T05:27:10;0.90;97.50
15997;DHT22;8103;51.340;12.326;2023-02-28T05:29:37;0.90;97.40
15997;DHT22;8103;51.340;12.326;2023-02-28T05:32:10;0.90;97.30
15997;DHT22;8103;51.340;12.326;2023-02-28T05:34:38;0.90;97.20
15997;DHT22;8103;51.340;12.326;2023-02-28T05:37:06;0.90;97.20
15997;DHT22;8103;51.340;12.326;2023-02-28T05:39:37;0.90;97.30
15997;DHT22;8103;51.340;12.326;2023-02-28T05:42:05;0.90;97.60
15997;DHT22;8103;51.340;12.326;2023-02-28T05:44:33;0.90;97.20
15997;DHT22;8103;51.340;12.326;2023-02-28T05:47:00;0.90;97.10
15997;DHT22;8103;51.340;12.326;2023-02-28T05:49:27;0.90;97.10
15997;DHT22;8103;51.340;12.326;2023-02-28T05:51:53;0.90;97.10
15997;DHT22;8103;51.340;12.326;2023-02-28T05:54:20;0.90;97.00
15997;DHT22;8103;51.340;12.326;2023-02-28T05:56:47;0.90;97.00
15997;DHT22;8103;51.340;12.326;2023-02-28T05:59:14;0.90;96.90
15997;DHT22;8103;51.340;12.326;2023-02-28T06:01:45;0.90;96.90
15997;DHT22;8103;51.340;12.326;2023-02-28T06:04:17;0.90;96.90
15997;DHT22;8103;51.340;12.326;2023-02-28T06:06:57;0.90;96.90
15997;DHT22;8103;51.340;12.326;2023-02-28T06:09:25;0.90;96.90
15997;DHT22;8103;51.340;12.326;2023-02-28T06:11:52;0.90;96.90
15997;DHT22;8103;51.340;12.326;2023-02-28T06:14:20;0.90;96.90
15997;DHT22;8103;51.340;12.326;2023-02-28T06:16:47;0.90;96.80
15997;DHT22;8103;51.340;12.326;2023-02-28T06:19:14;0.80;96.80
15997;DHT22;8103;51.340;12.326;2023-02-28T06:21:42;0.80;96.80
15997;DHT22;8103;51.340;12.326;2023-02-28T06:24:10;0.80;96.80
15997;DHT22;8103;51.340;12.326;2023-02-28T06:26:37;0.80;96.70
15997;DHT22;8103;51.340;12.326;2023-02-28T06:29:04;0.80;96.80
15997;DHT22;8103;51.340;12.326;2023-02-28T06:31:31;0.80;96.80
15997;DHT22;8103;51.340;12.326;2023-02-28T06:34:00;0.80;96.80
15997;DHT22;8103;51.340;12.326;2023-02-28T06:36:31;0.80;96.80
15997;DHT22;8103;51.340;12.326;2023-02-28T06:38:59;0.80;96.80
15997;DHT22;8103;51.340;12.326;2023-02-28T06:41:26;0.80;96.80
15997;DHT22;8103;51.340;12.326;2023-02-28T06:43:54;0.80;96.80
15997;DHT22;8103;51.340;12.326;2023-02-28T06:46:21;0.80;96.90
15997;DHT22;8103;51.340;12.326;2023-02-28T06:48:49;0.80;96.80
15997;DHT22;8103;51.340;12.326;2023-02-28T06:51:18;0.80;96.80
15997;DHT22;8103;51.340;12.326;2023-02-28T06:53:50;0.80;96.70
15997;DHT22;8103;51.340;12.326;2023-02-28T06:56:18;0.80;96.70
15997;DHT22;8103;51.340;12.326;2023-02-28T06:58:48;0.70;96.70
15997;DHT22;8103;51.340;12.326;2023-02-28T07:01:17;0.70;96.70
15997;DHT22;8103;51.340;12.326;2023-02-28T07:03:44;0.70;96.70
15997;DHT22;8103;51.340;12.326;2023-02-28T07:06:11;0.70;96.60
15997;DHT22;8103;51.340;12.326;2023-02-28T07:08:39;0.70;96.60
15997;DHT22;8103;51.340;12.326;2023-02-28T07:11:07;0.70;96.50
15997;DHT22;8103;51.340;12.326;2023-02-28T07:13:34;0.70;96.30
15997;DHT22;8103;51.340;12.326;2023-02-28T07:16:04;0.70;96.30
15997;DHT22;8103;51.340;12.326;2023-02-28T07:18:34;0.80;96.30
15997;DHT22;8103;51.340;12.326;2023-02-28T07:21:06;0.80;96.30
15997;DHT22;8103;51.340;12.326;2023-02-28T07:23:36;0.80;96.30
15997;DHT22;8103;51.340;12.326;2023-02-28T07:26:05;0.90;96.20
15997;DHT22;8103;51.340;12.326;2023-02-28T07:28:33;0.90;96.00
15997;DHT22;8103;51.340;12.326;2023-02-28T07:31:04;1.00;95.70
15997;DHT22;8103;51.340;12.326;2023-02-28T07:33:33;1.00;95.70
15997;DHT22;8103;51.340;12.326;2023-02-28T07:36:05;1.10;95.70
15997;DHT22;8103;51.340;12.326;2023-02-28T07:38:35;1.10;95.50
15997;DHT22;8103;51.340;12.326;2023-02-28T07:41:04;1.20;95.50
15997;DHT22;8103;51.340;12.326;2023-02-28T07:43:32;1.30;95.30
15997;DHT22;8103;51.340;12.326;2023-02-28T07:46:08;1.30;95.00
15997;DHT22;8103;51.340;12.326;2023-02-28T07:48:37;1.40;94.70
15997;DHT22;8103;51.340;12.326;2023-02-28T07:51:04;1.40;94.40
15997;DHT22;8103;51.340;12.326;2023-02-28T07:53:31;1.50;93.90
15997;DHT22;8103;51.340;12.326;2023-02-28T07:56:00;1.50;93.70
15997;DHT22;8103;51.340;12.326;2023-02-28T07:58:30;1.60;93.60
15997;DHT22;8103;51.340;12.326;2023-02-28T08:00:57;1.70;93.40
15997;DHT22;8103;51.340;12.326;2023-02-28T08:03:32;1.70;93.00
15997;DHT22;8103;51.340;12.326;2023-02-28T08:05:59;1.80;92.70
15997;DHT22;8103;51.340;12.326;2023-02-28T08:08:26;1.80;92.50
15997;DHT22;8103;51.340;12.326;2023-02-28T08:10:59;1.80;92.10
15997;DHT22;8103;51.340;12.326;2023-02-28T08:13:30;1.90;91.50
15997;DHT22;8103;51.340;12.326;2023-02-28T08:15:57;2.00;91.10
15997;DHT22;8103;51.340;12.326;2023-02-28T08:18:24;2.00;90.60
15997;DHT22;8103;51.340;12.326;2023-02-28T08:20:51;2.00;89.90
15997;DHT22;8103;51.340;12.326;2023-02-28T08:23:18;2.10;88.90
15997;DHT22;8103;51.340;12.326;2023-02-28T08:25:53;2.10;88.70
15997;DHT22;8103;51.340;12.326;2023-02-28T08:28:21;2.10;88.50
15997;DHT22;8103;51.340;12.326;2023-02-28T08:30:52;2.20;87.90
15997;DHT22;8103;51.340;12.326;2023-02-28T08:33:18;2.20;87.60
15997;DHT22;8103;51.340;12.326;2023-02-28T08:35:45;2.30;89.60
15997;DHT22;8103;51.340;12.326;2023-02-28T08:38:12;2.50;90.40
15997;DHT22;8103;51.340;12.326;2023-02-28T08:40:39;2.90;91.80
15997;DHT22;8103;51.340;12.326;2023-02-28T08:43:07;3.20;90.40
15997;DHT22;8103;51.340;12.326;2023-02-28T08:45:34;3.40;87.80
15997;DHT22;8103;51.340;12.326;2023-02-28T08:48:01;3.60;87.00
15997;DHT22;8103;51.340;12.326;2023-02-28T08:50:28;3.60;85.20
15997;DHT22;8103;51.340;12.326;2023-02-28T08:52:55;3.70;82.40
15997;DHT22;8103;51.340;12.326;2023-02-28T08:55:24;3.60;78.90
15997;DHT22;8103;51.340;12.326;2023-02-28T08:57:51;3.50;75.40
15997;DHT22;8103;51.340;12.326;2023-02-28T09:00:22;3.40;74.50
15997;DHT22;8103;51.340;12.326;2023-02-28T09:02:49;3.30;75.00
15997;DHT22;8103;51.340;12.326;2023-02-28T09:05:16;3.20;74.50
15997;DHT22;8103;51.340;12.326;2023-02-28T09:07:43;3.20;74.80
15997;DHT22;8103;51.340;12.326;2023-02-28T09:10:10;3.10;75.60
15997;DHT22;8103;51.340;12.326;2023-02-28T09:16:43;3.20;74.50
15997;DHT22;8103;51.340;12.326;2023-02-28T09:19:11;3.50;73.00
15997;DHT22;8103;51.340;12.326;2023-02-28T09:21:38;4.40;72.00
15997;DHT22;8103;51.340;12.326;2023-02-28T09:24:06;5.70;68.90
15997;DHT22;8103;51.340;12.326;2023-02-28T09:26:34;7.30;64.30
15997;DHT22;8103;51.340;12.326;2023-02-28T09:29:07;8.90;58.00
15997;DHT22;8103;51.340;12.326;2023-02-28T09:31:34;10.30;53.00
15997;DHT22;8103;51.340;12.326;2023-02-28T09:34:01;11.40;49.40
15997;DHT22;8103;51.340;12.326;2023-02-28T09:39:09;13.40;44.00
15997;DHT22;8103;51.340;12.326;2023-02-28T09:41:48;14.50;41.00
15997;DHT22;8103;51.340;12.326;2023-02-28T09:44:38;15.10;38.40
15997;DHT22;8103;51.340;12.326;2023-02-28T09:47:31;15.70;36.70
15997;DHT22;8103;51.340;12.326;2023-02-28T09:50:41;16.20;35.20
15997;DHT22;8103;51.340;12.326;2023-02-28T09:53:30;16.40;34.00
15997;DHT22;8103;51.340;12.326;2023-02-28T09:56:09;15.50;32.40
15997;DHT22;8103;51.340;12.326;2023-02-28T09:58:49;13.70;34.00
15997;DHT22;8103;51.340;12.326;2023-02-28T10:01:50;12.90;36.90
15997;DHT22;8103;51.340;12.326;2023-02-28T10:04:46;13.10;37.20
15997;DHT22;8103;51.340;12.326;2023-02-28T10:13:20;15.00;33.50
15997;DHT22;8103;51.340;12.326;2023-02-28T10:16:01;14.10;34.80
15997;DHT22;8103;51.340;12.326;2023-02-28T10:18:48;14.20;35.70
15997;DHT22;8103;51.340;12.326;2023-02-28T10:21:56;14.80;34.90
15997;DHT22;8103;51.340;12.326;2023-02-28T10:24:32;15.80;34.20
15997;DHT22;8103;51.340;12.326;2023-02-28T10:27:16;17.50;31.90
15997;DHT22;8103;51.340;12.326;2023-02-28T10:29:47;19.10;29.40
15997;DHT22;8103;51.340;12.326;2023-02-28T10:32:21;20.10;28.30
15997;DHT22;8103;51.340;12.326;2023-02-28T10:35:09;20.80;35.40
15997;DHT22;8103;51.340;12.326;2023-02-28T10:37:55;21.70;40.30
15997;DHT22;8103;51.340;12.326;2023-02-28T10:50:46;23.80;23.00
15997;DHT22;8103;51.340;12.326;2023-02-28T10:56:04;24.40;22.50
15997;DHT22;8103;51.340;12.326;2023-02-28T10:58:54;24.20;22.30
15997;DHT22;8103;51.340;12.326;2023-02-28T11:03:57;24.90;22.00
15997;DHT22;8103;51.340;12.326;2023-02-28T11:06:30;25.30;21.50
15997;DHT22;8103;51.340;12.326;2023-02-28T11:09:04;25.30;21.50
15997;DHT22;8103;51.340;12.326;2023-02-28T11:11:46;25.60;21.40
15997;DHT22;8103;51.340;12.326;2023-02-28T11:14:20;25.80;21.30
15997;DHT22;8103;51.340;12.326;2023-02-28T11:16:54;26.10;21.30
15997;DHT22;8103;51.340;12.326;2023-02-28T11:19:28;26.30;20.70
15997;DHT22;8103;51.340;12.326;2023-02-28T11:22:05;26.90;20.80
15997;DHT22;8103;51.340;12.326;2023-02-28T11:24:44;27.30;20.30
15997;DHT22;8103;51.340;12.326;2023-02-28T11:27:42;27.80;20.00
15997;DHT22;8103;51.340;12.326;2023-02-28T11:32:52;27.80;19.60
15997;DHT22;8103;51.340;12.326;2023-02-28T11:35:53;27.60;19.50
15997;DHT22;8103;51.340;12.326;2023-02-28T11:38:26;27.80;19.90
15997;DHT22;8103;51.340;12.326;2023-02-28T11:44:03;28.80;19.00
15997;DHT22;8103;51.340;12.326;2023-02-28T11:46:56;28.80;19.00
15997;DHT22;8103;51.340;12.326;2023-02-28T11:50:32;28.70;18.90
15997;DHT22;8103;51.340;12.326;2023-02-28T11:53:00;28.80;19.00
15997;DHT22;8103;51.340;12.326;2023-02-28T11:55:36;28.60;19.10
15997;DHT22;8103;51.340;12.326;2023-02-28T11:58:42;28.60;19.20
15997;DHT22;8103;51.340;12.326;2023-02-28T12:04:34;28.40;19.90
15997;DHT22;8103;51.340;12.326;2023-02-28T12:07:24;28.40;19.40
15997;DHT22;8103;51.340;12.326;2023-02-28T12:10:10;28.60;19.10
15997;DHT22;8103;51.340;12.326;2023-02-28T12:19:15;28.90;19.20
15997;DHT22;8103;51.340;12.326;2023-02-28T12:27:02;28.00;19.50
15997;DHT22;8103;51.340;12.326;2023-02-28T12:29:55;28.10;19.00
15997;DHT22;8103;51.340;12.326;2023-02-28T12:32:32;28.00;19.00
15997;DHT22;8103;51.340;12.326;2023-02-28T12:37:47;28.00;19.30
15997;DHT22;8103;51.340;12.326;2023-02-28T12:40:23;28.70;19.00
15997;DHT22;8103;51.340;12.326;2023-02-28T12:43:02;29.00;19.00
15997;DHT22;8103;51.340;12.326;2023-02-28T12:45:40;29.00;18.60
15997;DHT22;8103;51.340;12.326;2023-02-28T12:48:16;28.80;18.60
15997;DHT22;8103;51.340;12.326;2023-02-28T12:50:48;28.70;18.70
15997;DHT22;8103;51.340;12.326;2023-02-28T12:53:46;28.40;18.90
15997;DHT22;8103;51.340;12.326;2023-02-28T12:56:58;28.10;19.00
15997;DHT22;8103;51.340;12.326;2023-02-28T12:59:49;27.80;19.20
15997;DHT22;8103;51.340;12.326;2023-02-28T13:08:41;29.60;18.90
15997;DHT22;8103;51.340;12.326;2023-02-28T13:11:32;30.10;18.30
15997;DHT22;8103;51.340;12.326;2023-02-28T13:14:16;30.10;18.40
15997;DHT22;8103;51.340;12.326;2023-02-28T13:19:55;29.20;18.60
15997;DHT22;8103;51.340;12.326;2023-02-28T13:22:39;28.60;18.80
15997;DHT22;8103;51.340;12.326;2023-02-28T13:28:01;28.30;19.30
15997;DHT22;8103;51.340;12.326;2023-02-28T13:38:54;28.70;19.40
15997;DHT22;8103;51.340;12.326;2023-02-28T13:44:16;29.00;19.10
15997;DHT22;8103;51.340;12.326;2023-02-28T13:52:02;28.50;19.10
15997;DHT22;8103;51.340;12.326;2023-02-28T13:59:01;28.50;19.50
15997;DHT22;8103;51.340;12.326;2023-02-28T14:02:03;29.00;19.40
15997;DHT22;8103;51.340;12.326;2023-02-28T14:07:09;29.10;19.00
15997;DHT22;8103;51.340;12.326;2023-02-28T14:09:56;28.90;18.80
15997;DHT22;8103;51.340;12.326;2023-02-28T14:15:28;28.60;19.10
15997;DHT22;8103;51.340;12.326;2023-02-28T14:18:11;28.60;19.10
15997;DHT22;8103;51.340;12.326;2023-02-28T14:20:47;28.90;19.30
15997;DHT22;8103;51.340;12.326;2023-02-28T14:23:33;29.00;19.00
15997;DHT22;8103;51.340;12.326;2023-02-28T14:38:19;27.30;20.00
15997;DHT22;8103;51.340;12.326;2023-02-28T14:44:57;26.80;20.20
15997;DHT22;8103;51.340;12.326;2023-02-28T14:51:30;25.80;21.00
15997;DHT22;8103;51.340;12.326;2023-02-28T14:54:00;25.20;20.80
15997;DHT22;8103;51.340;12.326;2023-02-28T14:56:41;23.40;21.80
15997;DHT22;8103;51.340;12.326;2023-02-28T15:03:21;17.70;26.80
15997;DHT22;8103;51.340;12.326;2023-02-28T15:06:17;14.70;30.90
15997;DHT22;8103;51.340;12.326;2023-02-28T15:08:45;12.90;33.90
15997;DHT22;8103;51.340;12.326;2023-02-28T15:11:15;11.80;36.40
15997;DHT22;8103;51.340;12.326;2023-02-28T15:17:54;10.30;40.00
15997;DHT22;8103;51.340;12.326;2023-02-28T15:20:28;9.70;41.40
15997;DHT22;8103;51.340;12.326;2023-02-28T15:22:56;9.20;42.80
15997;DHT22;8103;51.340;12.326;2023-02-28T15:25:25;8.90;43.60
15997;DHT22;8103;51.340;12.326;2023-02-28T15:27:56;8.60;44.20
15997;DHT22;8103;51.340;12.326;2023-02-28T15:30:31;8.40;45.00
15997;DHT22;8103;51.340;12.326;2023-02-28T15:35:38;7.90;46.50
15997;DHT22;8103;51.340;12.326;2023-02-28T15:48:00;7.10;49.40
15997;DHT22;8103;51.340;12.326;2023-02-28T15:50:39;6.90;49.90
15997;DHT22;8103;51.340;12.326;2023-02-28T15:53:13;6.80;50.30
15997;DHT22;8103;51.340;12.326;2023-02-28T15:55:44;6.70;50.70
15997;DHT22;8103;51.340;12.326;2023-02-28T15:58:12;6.60;50.70
15997;DHT22;8103;51.340;12.326;2023-02-28T16:03:41;6.40;51.40
15997;DHT22;8103;51.340;12.326;2023-02-28T16:06:37;6.20;51.70
15997;DHT22;8103;51.340;12.326;2023-02-28T16:09:14;6.10;52.30
15997;DHT22;8103;51.340;12.326;2023-02-28T16:11:47;6.10;52.80
15997;DHT22;8103;51.340;12.326;2023-02-28T16:14:21;6.00;52.90
15997;DHT22;8103;51.340;12.326;2023-02-28T16:16:56;5.90;53.20
15997;DHT22;8103;51.340;12.326;2023-02-28T16:19:28;5.80;53.50
15997;DHT22;8103;51.340;12.326;2023-02-28T16:21:55;5.70;53.70
15997;DHT22;8103;51.340;12.326;2023-02-28T16:24:23;5.70;54.10
15997;DHT22;8103;51.340;12.326;2023-02-28T16:26:53;5.60;54.60
15997;DHT22;8103;51.340;12.326;2023-02-28T16:29:26;5.50;54.80
15997;DHT22;8103;51.340;12.326;2023-02-28T16:31:56;5.50;54.90
15997;DHT22;8103;51.340;12.326;2023-02-28T16:34:24;5.40;55.20
15997;DHT22;8103;51.340;12.326;2023-02-28T16:36:52;5.40;55.40
15997;DHT22;8103;51.340;12.326;2023-02-28T16:39:20;5.30;55.70
15997;DHT22;8103;51.340;12.326;2023-02-28T16:41:48;5.20;55.90
15997;DHT22;8103;51.340;12.326;2023-02-28T16:44:32;5.20;56.40
15997;DHT22;8103;51.340;12.326;2023-02-28T16:47:03;5.10;57.00
15997;DHT22;8103;51.340;12.326;2023-02-28T16:49:30;5.00;57.60
15997;DHT22;8103;51.340;12.326;2023-02-28T16:51:58;4.90;58.10
15997;DHT22;8103;51.340;12.326;2023-02-28T16:54:25;4.80;58.60
15997;DHT22;8103;51.340;12.326;2023-02-28T16:56:53;4.80;58.90
15997;DHT22;8103;51.340;12.326;2023-02-28T16:59:22;4.70;59.10
15997;DHT22;8103;51.340;12.326;2023-02-28T17:01:51;4.70;59.40
15997;DHT22;8103;51.340;12.326;2023-02-28T17:04:22;4.60;59.80
15997;DHT22;8103;51.340;12.326;2023-02-28T17:06:50;4.60;59.90
15997;DHT22;8103;51.340;12.326;2023-02-28T17:09:21;4.50;60.40
15997;DHT22;8103;51.340;12.326;2023-02-28T17:11:56;4.50;60.80
15997;DHT22;8103;51.340;12.326;2023-02-28T17:14:23;4.40;60.80
15997;DHT22;8103;51.340;12.326;2023-02-28T17:16:49;4.40;61.20
15997;DHT22;8103;51.340;12.326;2023-02-28T17:19:18;4.30;61.50
15997;DHT22;8103;51.340;12.326;2023-02-28T17:21:45;4.30;61.80
15997;DHT22;8103;51.340;12.326;2023-02-28T17:24:15;4.30;62.00
15997;DHT22;8103;51.340;12.326;2023-02-28T17:26:55;4.20;62.40
15997;DHT22;8103;51.340;12.326;2023-02-28T17:29:22;4.20;62.80
15997;DHT22;8103;51.340;12.326;2023-02-28T17:31:51;4.10;63.00
15997;DHT22;8103;51.340;12.326;2023-02-28T17:34:18;4.10;63.20
15997;DHT22;8103;51.340;12.326;2023-02-28T17:36:47;4.00;63.40
15997;DHT22;8103;51.340;12.326;2023-02-28T17:39:20;4.00;64.00
15997;DHT22;8103;51.340;12.326;2023-02-28T17:41:52;4.00;64.30
15997;DHT22;8103;51.340;12.326;2023-02-28T17:44:21;3.90;64.50
15997;DHT22;8103;51.340;12.326;2023-02-28T17:46:50;3.90;64.50
15997;DHT22;8103;51.340;12.326;2023-02-28T17:49:19;3.90;64.60
15997;DHT22;8103;51.340;12.326;2023-02-28T17:51:46;3.90;64.80
15997;DHT22;8103;51.340;12.326;2023-02-28T17:54:17;3.80;65.00
15997;DHT22;8103;51.340;12.326;2023-02-28T17:56:45;3.80;65.20
15997;DHT22;8103;51.340;12.326;2023-02-28T17:59:12;3.80;65.60
15997;DHT22;8103;51.340;12.326;2023-02-28T18:01:40;3.70;65.80
15997;DHT22;8103;51.340;12.326;2023-02-28T18:04:06;3.70;66.00
15997;DHT22;8103;51.340;12.326;2023-02-28T18:06:39;3.70;66.20
15997;DHT22;8103;51.340;12.326;2023-02-28T18:09:20;3.60;66.70
15997;DHT22;8103;51.340;12.326;2023-02-28T18:11:53;3.60;67.20
15997;DHT22;8103;51.340;12.326;2023-02-28T18:14:23;3.60;67.60
15997;DHT22;8103;51.340;12.326;2023-02-28T18:16:53;3.50;67.80
15997;DHT22;8103;51.340;12.326;2023-02-28T18:19:22;3.40;68.10
15997;DHT22;8103;51.340;12.326;2023-02-28T18:21:52;3.40;68.60
15997;DHT22;8103;51.340;12.326;2023-02-28T18:24:21;3.30;69.00
15997;DHT22;8103;51.340;12.326;2023-02-28T18:26:50;3.30;69.50
15997;DHT22;8103;51.340;12.326;2023-02-28T18:29:24;3.30;69.70
15997;DHT22;8103;51.340;12.326;2023-02-28T18:31:53;3.20;70.00
15997;DHT22;8103;51.340;12.326;2023-02-28T18:34:23;3.20;70.30
15997;DHT22;8103;51.340;12.326;2023-02-28T18:36:51;3.20;70.70
15997;DHT22;8103;51.340;12.326;2023-02-28T18:39:19;3.10;71.00
15997;DHT22;8103;51.340;12.326;2023-02-28T18:41:45;3.10;71.50
15997;DHT22;8103;51.340;12.326;2023-02-28T18:44:13;3.10;72.10
15997;DHT22;8103;51.340;12.326;2023-02-28T18:46:47;3.00;72.40
15997;DHT22;8103;51.340;12.326;2023-02-28T18:49:17;2.90;72.90
15997;DHT22;8103;51.340;12.326;2023-02-28T18:51:44;2.90;73.20